createdAt,value
2018-10-07T00:00:22.760Z,0
2018-10-07T00:01:03.331Z,0
2018-10-07T00:01:43.932Z,0
2018-10-07T00:02:24.602Z,0
2018-10-07T00:03:05.173Z,0
2018-10-07T00:03:45.741Z,0
2018-10-07T00:04:26.312Z,0
2018-10-07T00:05:06.880Z,0
2018-10-07T00:05:47.437Z,0
2018-10-07T00:06:28.013Z,0
2018-10-07T00:07:08.589Z,0
2018-10-07T00:07:49.148Z,0
2018-10-07T00:08:29.709Z,0
2018-10-07T00:09:10.270Z,0
2018-10-07T00:09:50.840Z,0
2018-10-07T00:10:31.420Z,0
2018-10-07T00:11:11.989Z,0
2018-10-07T00:11:52.590Z,0
2018-10-07T00:12:33.141Z,0
2018-10-07T00:13:13.710Z,0
2018-10-07T00:13:54.250Z,0
2018-10-07T00:14:34.820Z,0
2018-10-07T00:15:15.382Z,0
2018-10-07T00:15:55.932Z,0
2018-10-07T00:16:36.494Z,0
2018-10-07T00:17:17.075Z,0
2018-10-07T00:17:57.653Z,0
2018-10-07T00:18:38.252Z,0
2018-10-07T00:19:18.821Z,0
2018-10-07T00:19:59.387Z,0
2018-10-07T00:20:39.952Z,0
2018-10-07T00:21:21.531Z,0
2018-10-07T00:22:02.076Z,0
2018-10-07T00:22:42.659Z,0
2018-10-07T00:23:23.209Z,0
2018-10-07T00:24:03.773Z,0
2018-10-07T00:24:44.320Z,0
2018-10-07T00:25:24.909Z,0
2018-10-07T00:26:05.457Z,0
2018-10-07T00:26:46.031Z,0
2018-10-07T00:27:26.596Z,0
2018-10-07T00:28:07.147Z,0
2018-10-07T00:28:47.713Z,0
2018-10-07T00:29:28.273Z,0
2018-10-07T00:30:08.856Z,0
2018-10-07T00:30:49.420Z,0
2018-10-07T00:31:29.987Z,0
2018-10-07T00:32:10.584Z,0
2018-10-07T00:32:51.135Z,0
2018-10-07T00:33:31.692Z,0
2018-10-07T00:34:12.251Z,0
2018-10-07T00:34:52.818Z,0
2018-10-07T00:35:33.459Z,0
2018-10-07T00:36:14.051Z,0
2018-10-07T00:36:54.587Z,0
2018-10-07T00:37:35.153Z,0
2018-10-07T00:38:15.719Z,0
2018-10-07T00:38:56.262Z,0
2018-10-07T00:39:36.840Z,0
2018-10-07T00:40:17.400Z,0
2018-10-07T00:40:57.952Z,0
2018-10-07T00:41:38.542Z,0
2018-10-07T00:42:19.158Z,0
2018-10-07T00:42:59.737Z,0
2018-10-07T00:43:40.295Z,0
2018-10-07T00:44:20.843Z,0
2018-10-07T00:45:01.414Z,0
2018-10-07T00:45:41.983Z,0
2018-10-07T00:46:22.546Z,0
2018-10-07T00:47:03.127Z,0
2018-10-07T00:47:43.738Z,0
2018-10-07T00:48:24.310Z,0
2018-10-07T00:49:04.856Z,0
2018-10-07T00:49:45.434Z,0
2018-10-07T00:50:26.130Z,0
2018-10-07T00:51:06.642Z,0
2018-10-07T00:51:47.205Z,0
2018-10-07T00:52:27.804Z,0
2018-10-07T00:53:08.362Z,0
2018-10-07T00:53:48.986Z,0
2018-10-07T00:54:29.541Z,0
2018-10-07T00:55:10.126Z,0
2018-10-07T00:55:50.697Z,0
2018-10-07T00:56:31.257Z,0
2018-10-07T00:57:11.813Z,0
2018-10-07T00:57:52.391Z,0
2018-10-07T00:58:32.982Z,0
2018-10-07T00:59:13.586Z,0
2018-10-07T00:59:54.176Z,0
2018-10-07T01:00:34.758Z,0
2018-10-07T01:01:15.279Z,0
2018-10-07T01:01:55.897Z,0
2018-10-07T01:02:36.456Z,0
2018-10-07T01:03:17.005Z,0
2018-10-07T01:03:57.573Z,0
2018-10-07T01:04:38.206Z,0
2018-10-07T01:05:18.788Z,0
2018-10-07T01:05:59.364Z,0
2018-10-07T01:06:39.924Z,0
2018-10-07T01:07:20.506Z,0
2018-10-07T01:08:01.070Z,0
2018-10-07T01:08:41.639Z,0
2018-10-07T01:09:22.210Z,0
2018-10-07T01:10:02.774Z,0
2018-10-07T01:10:43.326Z,0
2018-10-07T01:11:23.930Z,0
2018-10-07T01:12:04.505Z,0
2018-10-07T01:12:45.079Z,0
2018-10-07T01:13:25.643Z,0
2018-10-07T01:14:06.212Z,0
2018-10-07T01:14:46.778Z,0
2018-10-07T01:15:27.349Z,0
2018-10-07T01:16:07.897Z,0
2018-10-07T01:16:48.489Z,0
2018-10-07T01:17:29.040Z,0
2018-10-07T01:18:09.616Z,0
2018-10-07T01:18:50.180Z,0
2018-10-07T01:19:30.758Z,0
2018-10-07T01:20:11.314Z,0
2018-10-07T01:20:51.914Z,0
2018-10-07T01:21:32.465Z,0
2018-10-07T01:22:13.018Z,0
2018-10-07T01:22:53.580Z,0
2018-10-07T01:23:34.485Z,0
2018-10-07T01:24:15.051Z,0
2018-10-07T01:24:55.602Z,0
2018-10-07T01:25:36.185Z,0
2018-10-07T01:26:16.744Z,0
2018-10-07T01:26:57.322Z,0
2018-10-07T01:27:37.884Z,0
2018-10-07T01:28:18.465Z,0
2018-10-07T01:28:59.038Z,0
2018-10-07T01:29:39.609Z,0
2018-10-07T01:30:20.190Z,0
2018-10-07T01:31:00.776Z,0
2018-10-07T01:31:41.368Z,0
2018-10-07T01:32:21.933Z,0
2018-10-07T01:33:02.505Z,0
2018-10-07T01:33:43.075Z,0
2018-10-07T01:34:23.628Z,0
2018-10-07T01:35:04.197Z,0
2018-10-07T01:35:44.763Z,0
2018-10-07T01:36:25.316Z,0
2018-10-07T01:37:05.870Z,0
2018-10-07T01:37:46.428Z,0
2018-10-07T01:38:27.042Z,0
2018-10-07T01:39:07.606Z,0
2018-10-07T01:39:48.179Z,0
2018-10-07T01:40:28.722Z,0
2018-10-07T01:41:09.305Z,0
2018-10-07T01:41:49.882Z,0
2018-10-07T01:42:30.465Z,0
2018-10-07T01:43:11.046Z,0
2018-10-07T01:43:51.609Z,0
2018-10-07T01:44:32.198Z,0
2018-10-07T01:45:12.768Z,0
2018-10-07T01:45:53.337Z,0
2018-10-07T01:46:33.902Z,0
2018-10-07T01:47:14.448Z,0
2018-10-07T01:47:55.019Z,0
2018-10-07T01:48:35.593Z,0
2018-10-07T01:49:16.158Z,0
2018-10-07T01:49:56.724Z,0
2018-10-07T01:50:37.299Z,0
2018-10-07T01:51:17.834Z,0
2018-10-07T01:51:58.397Z,0
2018-10-07T01:52:38.947Z,0
2018-10-07T01:53:19.613Z,0
2018-10-07T01:54:00.185Z,0
2018-10-07T01:54:40.755Z,0
2018-10-07T01:55:21.279Z,0
2018-10-07T01:56:01.842Z,0
2018-10-07T01:56:42.422Z,0
2018-10-07T01:57:22.985Z,0
2018-10-07T01:58:03.642Z,0
2018-10-07T01:58:44.214Z,0
2018-10-07T01:59:24.805Z,0
2018-10-07T02:00:05.354Z,0
2018-10-07T02:00:45.935Z,0
2018-10-07T02:01:26.506Z,0
2018-10-07T02:02:07.065Z,0
2018-10-07T02:02:47.645Z,0
2018-10-07T02:03:28.197Z,0
2018-10-07T02:04:08.770Z,0
2018-10-07T02:04:49.350Z,0
2018-10-07T02:05:29.932Z,0
2018-10-07T02:06:10.510Z,0
2018-10-07T02:06:51.080Z,0
2018-10-07T02:07:31.649Z,0
2018-10-07T02:08:12.211Z,0
2018-10-07T02:08:52.779Z,0
2018-10-07T02:09:33.322Z,0
2018-10-07T02:10:13.876Z,0
2018-10-07T02:10:54.447Z,0
2018-10-07T02:11:35.001Z,0
2018-10-07T02:12:15.578Z,0
2018-10-07T02:12:56.243Z,0
2018-10-07T02:13:36.822Z,0
2018-10-07T02:14:17.433Z,0
2018-10-07T02:14:58.012Z,0
2018-10-07T02:15:38.570Z,0
2018-10-07T02:16:19.135Z,0
2018-10-07T02:16:59.716Z,0
2018-10-07T02:17:40.280Z,0
2018-10-07T02:18:20.859Z,0
2018-10-07T02:19:01.425Z,0
2018-10-07T02:19:42.041Z,0
2018-10-07T02:20:22.601Z,0
2018-10-07T02:21:03.171Z,0
2018-10-07T02:21:43.769Z,0
2018-10-07T02:22:24.300Z,0
2018-10-07T02:23:04.863Z,0
2018-10-07T02:23:45.434Z,0
2018-10-07T02:24:26.019Z,0
2018-10-07T02:25:06.590Z,0
2018-10-07T02:25:47.150Z,0
2018-10-07T02:26:27.695Z,0
2018-10-07T02:27:08.303Z,0
2018-10-07T02:27:48.890Z,0
2018-10-07T02:28:29.455Z,0
2018-10-07T02:29:10.013Z,0
2018-10-07T02:29:50.652Z,0
2018-10-07T02:30:31.277Z,0
2018-10-07T02:31:11.840Z,0
2018-10-07T02:31:52.471Z,0
2018-10-07T02:32:33.037Z,0
2018-10-07T02:33:13.601Z,0
2018-10-07T02:33:54.162Z,0
2018-10-07T02:34:34.712Z,0
2018-10-07T02:35:15.302Z,0
2018-10-07T02:35:55.859Z,0
2018-10-07T02:36:36.430Z,0
2018-10-07T02:37:17.021Z,0
2018-10-07T02:37:57.570Z,0
2018-10-07T02:38:38.152Z,0
2018-10-07T02:39:18.732Z,0
2018-10-07T02:39:59.314Z,0
2018-10-07T02:40:39.904Z,0
2018-10-07T02:41:20.462Z,0
2018-10-07T02:42:01.034Z,0
2018-10-07T02:42:41.630Z,0
2018-10-07T02:43:22.202Z,0
2018-10-07T02:44:03.237Z,0
2018-10-07T02:44:43.982Z,0
2018-10-07T02:45:24.533Z,0
2018-10-07T02:46:05.085Z,0
2018-10-07T02:46:45.650Z,0
2018-10-07T02:47:26.264Z,0
2018-10-07T02:48:06.898Z,0
2018-10-07T02:48:47.461Z,0
2018-10-07T02:49:28.097Z,0
2018-10-07T02:50:08.669Z,0
2018-10-07T02:50:49.301Z,0
2018-10-07T02:51:29.892Z,0
2018-10-07T02:52:10.437Z,0
2018-10-07T02:52:51.010Z,0
2018-10-07T02:53:31.578Z,0
2018-10-07T02:54:12.130Z,0
2018-10-07T02:54:52.708Z,0
2018-10-07T02:55:33.264Z,0
2018-10-07T02:56:13.838Z,0
2018-10-07T02:56:54.404Z,0
2018-10-07T02:57:34.993Z,0
2018-10-07T02:58:15.560Z,0
2018-10-07T02:58:56.155Z,0
2018-10-07T02:59:36.733Z,0
2018-10-07T03:00:17.283Z,0
2018-10-07T03:00:57.859Z,0
2018-10-07T03:01:38.410Z,0
2018-10-07T03:02:18.996Z,0
2018-10-07T03:02:59.567Z,0
2018-10-07T03:03:40.175Z,0
2018-10-07T03:04:20.748Z,0
2018-10-07T03:05:01.315Z,0
2018-10-07T03:05:41.895Z,0
2018-10-07T03:06:22.484Z,0
2018-10-07T03:07:03.085Z,0
2018-10-07T03:07:43.632Z,0
2018-10-07T03:08:24.229Z,0
2018-10-07T03:09:04.848Z,0
2018-10-07T03:09:45.433Z,0
2018-10-07T03:10:25.987Z,0
2018-10-07T03:11:06.558Z,0
2018-10-07T03:11:47.138Z,0
2018-10-07T03:12:27.732Z,0
2018-10-07T03:13:08.278Z,0
2018-10-07T03:13:48.939Z,0
2018-10-07T03:14:29.491Z,0
2018-10-07T03:15:10.057Z,0
2018-10-07T03:15:50.619Z,0
2018-10-07T03:16:31.190Z,0
2018-10-07T03:17:11.795Z,0
2018-10-07T03:17:52.353Z,0
2018-10-07T03:18:32.926Z,0
2018-10-07T03:19:13.499Z,0
2018-10-07T03:19:54.108Z,0
2018-10-07T03:20:34.671Z,0
2018-10-07T03:21:15.265Z,0
2018-10-07T03:21:55.866Z,0
2018-10-07T03:22:36.464Z,0
2018-10-07T03:23:17.026Z,0
2018-10-07T03:23:57.579Z,0
2018-10-07T03:24:38.155Z,0
2018-10-07T03:25:18.722Z,0
2018-10-07T03:25:59.340Z,0
2018-10-07T03:26:39.851Z,0
2018-10-07T03:27:20.414Z,0
2018-10-07T03:28:00.980Z,0
2018-10-07T03:28:41.540Z,0
2018-10-07T03:29:22.147Z,0
2018-10-07T03:30:02.657Z,0
2018-10-07T03:30:43.231Z,0
2018-10-07T03:31:23.825Z,0
2018-10-07T03:32:04.378Z,0
2018-10-07T03:32:44.974Z,0
2018-10-07T03:33:25.534Z,0
2018-10-07T03:34:06.105Z,0
2018-10-07T03:34:46.678Z,0
2018-10-07T03:35:27.242Z,0
2018-10-07T03:36:07.824Z,0
2018-10-07T03:36:48.392Z,0
2018-10-07T03:37:28.956Z,0
2018-10-07T03:38:09.533Z,0
2018-10-07T03:38:50.082Z,0
2018-10-07T03:39:30.649Z,0
2018-10-07T03:40:11.205Z,0
2018-10-07T03:40:51.766Z,0
2018-10-07T03:41:32.318Z,0
2018-10-07T03:42:12.895Z,0
2018-10-07T03:42:53.461Z,0
2018-10-07T03:43:34.020Z,0
2018-10-07T03:44:14.582Z,0
2018-10-07T03:44:55.160Z,0
2018-10-07T03:45:35.723Z,0
2018-10-07T03:46:16.269Z,0
2018-10-07T03:46:56.831Z,0
2018-10-07T03:47:37.372Z,0
2018-10-07T03:48:17.977Z,0
2018-10-07T03:48:58.530Z,0
2018-10-07T03:49:39.096Z,0
2018-10-07T03:50:19.666Z,0
2018-10-07T03:51:00.252Z,0
2018-10-07T03:51:40.821Z,0
2018-10-07T03:52:21.388Z,0
2018-10-07T03:53:01.973Z,0
2018-10-07T03:53:42.519Z,0
2018-10-07T03:54:23.086Z,0
2018-10-07T03:55:03.641Z,0
2018-10-07T03:55:44.204Z,0
2018-10-07T03:56:24.758Z,0
2018-10-07T03:57:05.335Z,0
2018-10-07T03:57:45.890Z,0
2018-10-07T03:58:26.476Z,0
2018-10-07T03:59:07.033Z,0
2018-10-07T03:59:47.634Z,0
2018-10-07T04:00:28.205Z,0
2018-10-07T04:01:08.772Z,0
2018-10-07T04:01:49.337Z,0
2018-10-07T04:02:29.895Z,0
2018-10-07T04:03:10.468Z,0
2018-10-07T04:03:51.049Z,0
2018-10-07T04:04:31.654Z,0
2018-10-07T04:05:12.180Z,0
2018-10-07T04:05:52.789Z,0
2018-10-07T04:06:33.328Z,0
2018-10-07T04:07:13.889Z,0
2018-10-07T04:07:54.472Z,0
2018-10-07T04:08:35.053Z,0
2018-10-07T04:09:15.630Z,0
2018-10-07T04:09:56.212Z,0
2018-10-07T04:10:36.760Z,0
2018-10-07T04:11:17.324Z,0
2018-10-07T04:11:57.933Z,0
2018-10-07T04:12:38.497Z,0
2018-10-07T04:13:19.077Z,0
2018-10-07T04:13:59.646Z,0
2018-10-07T04:14:40.204Z,0
2018-10-07T04:15:20.816Z,0
2018-10-07T04:16:01.379Z,0
2018-10-07T04:16:41.940Z,0
2018-10-07T04:17:22.580Z,0
2018-10-07T04:18:03.130Z,0
2018-10-07T04:18:43.747Z,0
2018-10-07T04:19:24.301Z,0
2018-10-07T04:20:04.892Z,0
2018-10-07T04:20:45.469Z,0
2018-10-07T04:21:26.033Z,0
2018-10-07T04:22:06.603Z,0
2018-10-07T04:22:47.161Z,0
2018-10-07T04:23:27.731Z,0
2018-10-07T04:24:08.304Z,0
2018-10-07T04:24:48.896Z,0
2018-10-07T04:25:29.449Z,0
2018-10-07T04:26:10.008Z,0
2018-10-07T04:26:50.583Z,0
2018-10-07T04:27:31.135Z,0
2018-10-07T04:28:11.710Z,0
2018-10-07T04:28:52.286Z,0
2018-10-07T04:29:32.846Z,0
2018-10-07T04:30:13.399Z,0
2018-10-07T04:30:53.949Z,0
2018-10-07T04:31:34.522Z,0
2018-10-07T04:32:15.252Z,0
2018-10-07T04:32:56.389Z,0
2018-10-07T04:33:37.127Z,0
2018-10-07T04:34:17.733Z,0
2018-10-07T04:34:58.467Z,0
2018-10-07T04:35:39.078Z,0
2018-10-07T04:36:19.652Z,0
2018-10-07T04:37:00.213Z,0
2018-10-07T04:37:41.265Z,0
2018-10-07T04:38:21.894Z,0
2018-10-07T04:39:02.650Z,0
2018-10-07T04:39:43.154Z,0
2018-10-07T04:40:23.830Z,0
2018-10-07T04:41:04.412Z,0
2018-10-07T04:41:44.976Z,0
2018-10-07T04:42:25.927Z,0
2018-10-07T04:43:06.501Z,0
2018-10-07T04:43:47.091Z,0
2018-10-07T04:44:27.681Z,0
2018-10-07T04:45:08.519Z,0
2018-10-07T04:45:50.747Z,0
2018-10-07T04:46:31.745Z,0
2018-10-07T04:47:12.462Z,0
2018-10-07T04:47:53.255Z,0
2018-10-07T04:48:34.141Z,0
2018-10-07T04:49:14.940Z,4
2018-10-07T04:49:55.724Z,4
2018-10-07T04:50:36.679Z,4
2018-10-07T04:51:17.787Z,4
2018-10-07T04:51:58.619Z,0
2018-10-07T04:52:39.591Z,4
2018-10-07T04:53:20.692Z,4
2018-10-07T04:54:01.501Z,4
2018-10-07T04:54:42.509Z,4
2018-10-07T04:55:24.097Z,4
2018-10-07T04:56:05.050Z,8
2018-10-07T04:56:45.865Z,8
2018-10-07T04:57:26.836Z,8
2018-10-07T04:58:07.877Z,8
2018-10-07T04:58:48.800Z,8
2018-10-07T04:59:29.844Z,8
2018-10-07T05:00:10.618Z,8
2018-10-07T05:00:51.512Z,8
2018-10-07T05:01:32.291Z,12
2018-10-07T05:02:13.329Z,8
2018-10-07T05:02:54.066Z,12
2018-10-07T05:03:35.251Z,12
2018-10-07T05:04:16.472Z,12
2018-10-07T05:04:57.789Z,16
2018-10-07T05:05:38.967Z,16
2018-10-07T05:06:19.799Z,16
2018-10-07T05:07:00.367Z,16
2018-10-07T05:07:41.416Z,16
2018-10-07T05:08:22.040Z,16
2018-10-07T05:09:02.762Z,16
2018-10-07T05:09:43.332Z,16
2018-10-07T05:10:23.969Z,20
2018-10-07T05:11:04.536Z,20
2018-10-07T05:11:45.116Z,24
2018-10-07T05:12:25.758Z,24
2018-10-07T05:13:06.252Z,24
2018-10-07T05:13:46.807Z,28
2018-10-07T05:14:27.384Z,28
2018-10-07T05:15:08.143Z,32
2018-10-07T05:15:49.044Z,32
2018-10-07T05:16:29.982Z,36
2018-10-07T05:17:10.620Z,40
2018-10-07T05:17:51.188Z,44
2018-10-07T05:18:31.736Z,48
2018-10-07T05:19:12.540Z,52
2018-10-07T05:19:53.197Z,56
2018-10-07T05:20:34.092Z,60
2018-10-07T05:21:15.080Z,68
2018-10-07T05:21:56.346Z,72
2018-10-07T05:22:36.847Z,84
2018-10-07T05:23:17.415Z,96
2018-10-07T05:23:58.093Z,104
2018-10-07T05:24:39.066Z,112
2018-10-07T05:25:19.729Z,124
2018-10-07T05:26:00.592Z,136
2018-10-07T05:26:41.635Z,148
2018-10-07T05:27:22.228Z,168
2018-10-07T05:28:02.861Z,184
2018-10-07T05:28:44.608Z,208
2018-10-07T05:29:25.384Z,232
2018-10-07T05:30:06.663Z,256
2018-10-07T05:30:47.519Z,288
2018-10-07T05:31:28.128Z,320
2018-10-07T05:32:08.721Z,348
2018-10-07T05:32:50.405Z,376
2018-10-07T05:33:31.505Z,404
2018-10-07T05:34:12.136Z,424
2018-10-07T05:34:52.815Z,448
2018-10-07T05:35:33.528Z,464
2018-10-07T05:36:14.323Z,492
2018-10-07T05:36:55.012Z,528
2018-10-07T05:37:35.764Z,572
2018-10-07T05:38:16.454Z,620
2018-10-07T05:38:57.225Z,668
2018-10-07T05:39:38.067Z,716
2018-10-07T05:40:19.084Z,772
2018-10-07T05:40:59.814Z,828
2018-10-07T05:41:40.386Z,872
2018-10-07T05:42:21.209Z,920
2018-10-07T05:43:02.062Z,960
2018-10-07T05:43:42.591Z,1008
2018-10-07T05:44:23.500Z,1052
2018-10-07T05:45:04.483Z,1092
2018-10-07T05:45:45.209Z,1132
2018-10-07T05:46:25.811Z,1176
2018-10-07T05:47:06.601Z,1220
2018-10-07T05:47:47.460Z,1264
2018-10-07T05:48:29.496Z,1312
2018-10-07T05:49:10.485Z,1360
2018-10-07T05:49:51.238Z,1416
2018-10-07T05:50:31.896Z,1476
2018-10-07T05:51:12.683Z,1544
2018-10-07T05:51:53.506Z,1616
2018-10-07T05:52:34.080Z,1688
2018-10-07T05:53:14.645Z,1744
2018-10-07T05:53:55.254Z,1796
2018-10-07T05:54:35.859Z,1844
2018-10-07T05:55:16.416Z,1904
2018-10-07T05:55:57.238Z,1972
2018-10-07T05:56:38.171Z,2028
2018-10-07T05:57:19.297Z,2096
2018-10-07T05:58:00.024Z,2196
2018-10-07T05:58:40.909Z,2284
2018-10-07T05:59:21.716Z,2352
2018-10-07T06:00:02.301Z,2416
2018-10-07T06:00:42.926Z,2492
2018-10-07T06:01:23.607Z,2580
2018-10-07T06:02:04.277Z,2676
2018-10-07T06:02:44.896Z,2744
2018-10-07T06:03:25.669Z,2788
2018-10-07T06:04:06.500Z,2828
2018-10-07T06:04:47.075Z,2844
2018-10-07T06:05:27.642Z,2808
2018-10-07T06:06:08.579Z,2768
2018-10-07T06:06:49.421Z,2744
2018-10-07T06:07:29.991Z,2776
2018-10-07T06:08:10.596Z,2864
2018-10-07T06:08:51.421Z,2944
2018-10-07T06:09:32.132Z,3012
2018-10-07T06:10:13.633Z,3056
2018-10-07T06:10:54.421Z,3092
2018-10-07T06:11:35.108Z,3128
2018-10-07T06:12:15.870Z,3180
2018-10-07T06:12:56.485Z,3324
2018-10-07T06:13:37.454Z,3528
2018-10-07T06:14:18.275Z,3692
2018-10-07T06:14:58.993Z,3792
2018-10-07T06:15:39.468Z,3840
2018-10-07T06:16:20.075Z,3736
2018-10-07T06:17:00.653Z,3640
2018-10-07T06:17:41.219Z,3680
2018-10-07T06:18:21.820Z,3712
2018-10-07T06:19:02.387Z,3692
2018-10-07T06:19:42.964Z,3648
2018-10-07T06:20:23.528Z,3588
2018-10-07T06:21:04.123Z,3500
2018-10-07T06:21:45.593Z,3332
2018-10-07T06:22:26.259Z,2684
2018-10-07T06:23:07.126Z,1812
2018-10-07T06:23:47.795Z,1436
2018-10-07T06:24:28.632Z,1376
2018-10-07T06:25:09.385Z,1492
2018-10-07T06:25:51.095Z,1280
2018-10-07T06:26:31.571Z,1148
2018-10-07T06:27:13.111Z,1048
2018-10-07T06:27:53.967Z,984
2018-10-07T06:28:34.545Z,988
2018-10-07T06:29:15.122Z,984
2018-10-07T06:29:55.743Z,1040
2018-10-07T06:30:36.219Z,1004
2018-10-07T06:31:16.785Z,992
2018-10-07T06:31:57.403Z,836
2018-10-07T06:32:37.954Z,608
2018-10-07T06:33:18.538Z,592
2018-10-07T06:33:59.091Z,720
2018-10-07T06:34:39.650Z,720
2018-10-07T06:35:20.193Z,664
2018-10-07T06:36:00.757Z,612
2018-10-07T06:36:41.351Z,564
2018-10-07T06:37:21.997Z,592
2018-10-07T06:38:02.561Z,640
2018-10-07T06:38:43.175Z,676
2018-10-07T06:39:23.676Z,672
2018-10-07T06:40:04.246Z,624
2018-10-07T06:40:44.830Z,632
2018-10-07T06:41:25.400Z,688
2018-10-07T06:42:05.974Z,608
2018-10-07T06:42:46.530Z,536
2018-10-07T06:43:27.139Z,496
2018-10-07T06:44:07.702Z,496
2018-10-07T06:44:48.274Z,548
2018-10-07T06:45:28.895Z,592
2018-10-07T06:46:09.429Z,656
2018-10-07T06:46:50.017Z,624
2018-10-07T06:47:30.611Z,520
2018-10-07T06:48:11.181Z,452
2018-10-07T06:48:51.749Z,428
2018-10-07T06:49:32.521Z,428
2018-10-07T06:50:13.607Z,432
2018-10-07T06:50:55.109Z,464
2018-10-07T06:51:36.402Z,484
2018-10-07T06:52:17.151Z,480
2018-10-07T06:52:59.083Z,504
2018-10-07T06:53:39.852Z,520
2018-10-07T06:54:20.688Z,504
2018-10-07T06:55:01.613Z,504
2018-10-07T06:55:42.508Z,484
2018-10-07T06:56:23.129Z,472
2018-10-07T06:57:03.696Z,464
2018-10-07T06:57:44.503Z,492
2018-10-07T06:58:24.959Z,532
2018-10-07T06:59:05.510Z,548
2018-10-07T06:59:46.140Z,584
2018-10-07T07:00:26.642Z,576
2018-10-07T07:01:07.218Z,528
2018-10-07T07:01:48.032Z,504
2018-10-07T07:02:28.701Z,508
2018-10-07T07:03:09.339Z,516
2018-10-07T07:03:49.899Z,540
2018-10-07T07:04:30.475Z,548
2018-10-07T07:05:11.113Z,552
2018-10-07T07:05:51.682Z,560
2018-10-07T07:06:32.299Z,620
2018-10-07T07:07:12.834Z,700
2018-10-07T07:07:53.459Z,740
2018-10-07T07:08:33.970Z,776
2018-10-07T07:09:14.547Z,864
2018-10-07T07:09:55.123Z,1004
2018-10-07T07:10:35.680Z,1124
2018-10-07T07:11:16.273Z,1516
2018-10-07T07:11:56.842Z,1964
2018-10-07T07:12:37.404Z,2160
2018-10-07T07:13:17.961Z,2468
2018-10-07T07:13:58.517Z,2844
2018-10-07T07:14:39.080Z,3376
2018-10-07T07:15:19.652Z,3228
2018-10-07T07:16:00.221Z,2332
2018-10-07T07:16:40.790Z,1884
2018-10-07T07:17:21.349Z,1568
2018-10-07T07:18:01.965Z,1252
2018-10-07T07:18:42.514Z,972
2018-10-07T07:19:23.083Z,852
2018-10-07T07:20:03.657Z,864
2018-10-07T07:20:44.216Z,796
2018-10-07T07:21:24.777Z,736
2018-10-07T07:22:05.325Z,692
2018-10-07T07:22:45.878Z,660
2018-10-07T07:23:26.453Z,688
2018-10-07T07:24:07.028Z,800
2018-10-07T07:24:47.599Z,960
2018-10-07T07:25:28.171Z,1060
2018-10-07T07:26:08.816Z,1092
2018-10-07T07:26:49.374Z,1144
2018-10-07T07:27:29.936Z,1184
2018-10-07T07:28:10.499Z,1152
2018-10-07T07:28:51.053Z,1084
2018-10-07T07:29:31.612Z,1064
2018-10-07T07:30:12.169Z,1084
2018-10-07T07:30:52.744Z,1232
2018-10-07T07:31:33.351Z,1312
2018-10-07T07:32:13.858Z,1400
2018-10-07T07:32:54.432Z,1456
2018-10-07T07:33:34.993Z,1592
2018-10-07T07:34:15.566Z,1588
2018-10-07T07:34:56.132Z,1656
2018-10-07T07:35:36.712Z,1656
2018-10-07T07:36:17.274Z,1648
2018-10-07T07:36:57.913Z,2060
2018-10-07T07:37:38.404Z,1976
2018-10-07T07:38:18.982Z,1824
2018-10-07T07:38:59.583Z,1752
2018-10-07T07:39:40.140Z,1604
2018-10-07T07:40:20.695Z,1536
2018-10-07T07:41:01.256Z,1440
2018-10-07T07:41:41.832Z,1268
2018-10-07T07:42:22.495Z,1268
2018-10-07T07:43:02.946Z,1192
2018-10-07T07:43:43.490Z,1300
2018-10-07T07:44:24.077Z,1000
2018-10-07T07:45:04.645Z,860
2018-10-07T07:45:45.203Z,804
2018-10-07T07:46:25.763Z,800
2018-10-07T07:47:06.337Z,840
2018-10-07T07:47:46.888Z,780
2018-10-07T07:48:27.459Z,732
2018-10-07T07:49:08.022Z,732
2018-10-07T07:49:48.578Z,672
2018-10-07T07:50:29.148Z,612
2018-10-07T07:51:09.712Z,576
2018-10-07T07:51:50.313Z,528
2018-10-07T07:52:30.908Z,500
2018-10-07T07:53:11.465Z,472
2018-10-07T07:53:52.024Z,452
2018-10-07T07:54:32.599Z,420
2018-10-07T07:55:13.157Z,392
2018-10-07T07:55:53.708Z,368
2018-10-07T07:56:34.284Z,364
2018-10-07T07:57:14.848Z,372
2018-10-07T07:57:55.420Z,360
2018-10-07T07:58:35.997Z,348
2018-10-07T07:59:16.544Z,360
2018-10-07T07:59:57.169Z,396
2018-10-07T08:00:37.673Z,468
2018-10-07T08:01:18.261Z,560
2018-10-07T08:01:58.836Z,616
2018-10-07T08:02:39.387Z,572
2018-10-07T08:03:19.999Z,512
2018-10-07T08:04:00.556Z,468
2018-10-07T08:04:41.102Z,436
2018-10-07T08:05:21.681Z,416
2018-10-07T08:06:02.263Z,416
2018-10-07T08:06:42.840Z,424
2018-10-07T08:07:23.404Z,396
2018-10-07T08:08:03.958Z,368
2018-10-07T08:08:44.576Z,364
2018-10-07T08:09:25.083Z,392
2018-10-07T08:10:05.650Z,452
2018-10-07T08:10:46.215Z,596
2018-10-07T08:11:26.824Z,652
2018-10-07T08:12:07.384Z,668
2018-10-07T08:12:47.944Z,696
2018-10-07T08:13:28.507Z,688
2018-10-07T08:14:09.059Z,676
2018-10-07T08:14:49.642Z,752
2018-10-07T08:15:30.198Z,868
2018-10-07T08:16:10.771Z,972
2018-10-07T08:16:51.340Z,1040
2018-10-07T08:17:31.947Z,1164
2018-10-07T08:18:12.459Z,1240
2018-10-07T08:18:53.052Z,1272
2018-10-07T08:19:33.625Z,1444
2018-10-07T08:20:14.218Z,1676
2018-10-07T08:20:54.782Z,2128
2018-10-07T08:21:35.355Z,2244
2018-10-07T08:22:15.912Z,2384
2018-10-07T08:22:56.483Z,2332
2018-10-07T08:23:37.071Z,3052
2018-10-07T08:24:17.665Z,4604
2018-10-07T08:24:58.222Z,5424
2018-10-07T08:25:38.777Z,5348
2018-10-07T08:26:19.345Z,5280
2018-10-07T08:26:59.949Z,4348
2018-10-07T08:27:40.561Z,3164
2018-10-07T08:28:21.125Z,2528
2018-10-07T08:29:01.684Z,2176
2018-10-07T08:29:42.356Z,2056
2018-10-07T08:30:22.845Z,1956
2018-10-07T08:31:03.483Z,1856
2018-10-07T08:31:44.071Z,1960
2018-10-07T08:32:24.673Z,2084
2018-10-07T08:33:05.272Z,2188
2018-10-07T08:33:45.880Z,2316
2018-10-07T08:34:26.553Z,2416
2018-10-07T08:35:07.310Z,2356
2018-10-07T08:35:48.002Z,2720
2018-10-07T08:36:28.658Z,2616
2018-10-07T08:37:09.267Z,2664
2018-10-07T08:37:49.913Z,2584
2018-10-07T08:38:30.686Z,2684
2018-10-07T08:39:11.272Z,2708
2018-10-07T08:39:51.878Z,2536
2018-10-07T08:40:32.467Z,2380
2018-10-07T08:41:13.237Z,2360
2018-10-07T08:41:53.942Z,2312
2018-10-07T08:42:34.503Z,2320
2018-10-07T08:43:15.282Z,2496
2018-10-07T08:43:55.818Z,2368
2018-10-07T08:44:36.509Z,2260
2018-10-07T08:45:17.072Z,2176
2018-10-07T08:45:57.636Z,2192
2018-10-07T08:46:38.217Z,2236
2018-10-07T08:47:18.784Z,2060
2018-10-07T08:47:59.336Z,1948
2018-10-07T08:48:39.930Z,2192
2018-10-07T08:49:20.486Z,2176
2018-10-07T08:50:01.118Z,2444
2018-10-07T08:50:41.609Z,2484
2018-10-07T08:51:22.165Z,2544
2018-10-07T08:52:02.739Z,2464
2018-10-07T08:52:43.300Z,2508
2018-10-07T08:53:24.013Z,2720
2018-10-07T08:54:04.585Z,2580
2018-10-07T08:54:45.184Z,2192
2018-10-07T08:55:25.757Z,2088
2018-10-07T08:56:06.468Z,2676
2018-10-07T08:56:46.901Z,3156
2018-10-07T08:57:27.473Z,3948
2018-10-07T08:58:08.030Z,4952
2018-10-07T08:58:48.603Z,6972
2018-10-07T08:59:29.172Z,6888
2018-10-07T09:00:09.753Z,5736
2018-10-07T09:00:50.324Z,3852
2018-10-07T09:01:30.898Z,2852
2018-10-07T09:02:11.628Z,2344
2018-10-07T09:02:52.017Z,2232
2018-10-07T09:03:32.617Z,2684
2018-10-07T09:04:13.275Z,2968
2018-10-07T09:04:53.861Z,2884
2018-10-07T09:05:34.425Z,2748
2018-10-07T09:06:15.000Z,2620
2018-10-07T09:06:55.584Z,2504
2018-10-07T09:07:36.145Z,2420
2018-10-07T09:08:16.836Z,2516
2018-10-07T09:08:57.517Z,2620
2018-10-07T09:09:37.983Z,2676
2018-10-07T09:10:18.576Z,2664
2018-10-07T09:10:59.185Z,2528
2018-10-07T09:11:39.742Z,2340
2018-10-07T09:12:20.303Z,2100
2018-10-07T09:13:00.860Z,1940
2018-10-07T09:13:41.421Z,1976
2018-10-07T09:14:22.037Z,2128
2018-10-07T09:15:02.609Z,2284
2018-10-07T09:15:43.172Z,2348
2018-10-07T09:16:23.749Z,2444
2018-10-07T09:17:04.345Z,2508
2018-10-07T09:17:44.900Z,2608
2018-10-07T09:18:25.675Z,2684
2018-10-07T09:19:06.251Z,2936
2018-10-07T09:19:46.801Z,3052
2018-10-07T09:20:27.350Z,3296
2018-10-07T09:21:08.065Z,3392
2018-10-07T09:21:48.478Z,3684
2018-10-07T09:22:29.045Z,3924
2018-10-07T09:23:09.606Z,3780
2018-10-07T09:23:50.220Z,3692
2018-10-07T09:24:30.785Z,3804
2018-10-07T09:25:11.363Z,3528
2018-10-07T09:25:51.941Z,3032
2018-10-07T09:26:32.518Z,2716
2018-10-07T09:27:13.253Z,2596
2018-10-07T09:27:53.663Z,2592
2018-10-07T09:28:34.219Z,2624
2018-10-07T09:29:14.783Z,2420
2018-10-07T09:29:55.374Z,2296
2018-10-07T09:30:35.952Z,2252
2018-10-07T09:31:16.536Z,2196
2018-10-07T09:31:57.095Z,2272
2018-10-07T09:32:37.835Z,2404
2018-10-07T09:33:18.224Z,2580
2018-10-07T09:33:58.779Z,2776
2018-10-07T09:34:39.351Z,2804
2018-10-07T09:35:19.922Z,2868
2018-10-07T09:36:00.471Z,3020